Terminal Aerodrome Forecast
Issued by NWS Cleveland, OH

Home | Current Version | Previous Version | Text Only | Print | Product List | Glossary Off
Versions: 1 2 3 4 5 6 7 8 9 10 11 12 13 14 15

000
FTUS41 KCLE 241100
TAFYNG
TAF
KYNG 241132Z 2412/2512 18007KT P6SM SCT250
     FM241600 18007KT P6SM SCT150 BKN250
     FM242200 16007KT P6SM BKN150 OVC250=

USA.gov is the U.S. government's official web portal to all federal, state and local government web resources and services.